createdAt,value
2017-09-10T00:00:56.681Z,7.20
2017-09-10T00:03:24.231Z,6.32
2017-09-10T00:05:51.981Z,6.70
2017-09-10T00:08:19.541Z,6.10
2017-09-10T00:10:47.213Z,5.82
2017-09-10T00:13:14.777Z,6.28
2017-09-10T00:15:42.429Z,10.20
2017-09-10T00:18:10.127Z,8.13
2017-09-10T00:20:37.730Z,6.32
2017-09-10T00:23:05.334Z,6.65
2017-09-10T00:25:32.891Z,7.37
2017-09-10T00:28:00.521Z,8.95
2017-09-10T00:30:28.092Z,10.93
2017-09-10T00:32:56.051Z,8.95
2017-09-10T00:35:23.642Z,8.80
2017-09-10T00:37:51.185Z,9.20
2017-09-10T00:40:22.698Z,7.40
2017-09-10T00:42:50.253Z,6.43
2017-09-10T00:45:18.594Z,7.43
2017-09-10T00:47:46.229Z,6.87
2017-09-10T00:50:13.862Z,6.43
2017-09-10T00:52:43.023Z,6.30
2017-09-10T00:55:10.577Z,7.07
2017-09-10T00:57:38.166Z,7.12
2017-09-10T01:00:05.728Z,10.18
2017-09-10T01:02:34.151Z,10.20
2017-09-10T01:05:01.736Z,11.35
2017-09-10T01:07:29.705Z,10.18
2017-09-10T01:09:57.270Z,12.57
2017-09-10T01:12:24.881Z,14.00
2017-09-10T01:14:52.456Z,14.57
2017-09-10T01:17:20.070Z,14.32
2017-09-10T01:19:48.442Z,10.43
2017-09-10T01:22:15.995Z,7.50
2017-09-10T01:24:43.630Z,7.47
2017-09-10T01:27:11.184Z,7.40
2017-09-10T01:29:38.881Z,10.77
2017-09-10T01:32:06.428Z,9.05
2017-09-10T01:34:33.987Z,9.00
2017-09-10T01:37:01.630Z,9.90
2017-09-10T01:39:29.286Z,9.15
2017-09-10T01:41:56.921Z,9.85
2017-09-10T01:44:24.486Z,10.10
2017-09-10T01:46:52.118Z,9.60
2017-09-10T01:49:20.471Z,8.65
2017-09-10T01:51:48.106Z,10.65
2017-09-10T01:54:15.867Z,8.95
2017-09-10T01:56:43.436Z,11.18
2017-09-10T01:59:11.026Z,10.55
2017-09-10T02:01:38.586Z,10.93
2017-09-10T02:04:06.332Z,12.70
2017-09-10T02:06:33.891Z,9.75
2017-09-10T02:09:03.306Z,8.80
2017-09-10T02:11:30.882Z,14.27
2017-09-10T02:13:58.483Z,10.02
2017-09-10T02:16:26.073Z,7.60
2017-09-10T02:18:53.799Z,10.05
2017-09-10T02:21:21.396Z,14.45
2017-09-10T02:23:48.950Z,11.88
2017-09-10T02:26:16.533Z,12.55
2017-09-10T02:28:44.086Z,13.13
2017-09-10T02:31:12.270Z,10.00
2017-09-10T02:33:39.837Z,7.62
2017-09-10T02:36:07.394Z,8.88
2017-09-10T02:38:35.159Z,8.00
2017-09-10T02:41:04.351Z,9.70
2017-09-10T02:43:31.930Z,9.70
2017-09-10T02:45:59.513Z,12.00
2017-09-10T02:48:28.022Z,13.35
2017-09-10T02:50:55.571Z,8.95
2017-09-10T02:53:28.184Z,9.52
2017-09-10T02:55:55.782Z,8.43
2017-09-10T02:58:24.136Z,9.35
2017-09-10T03:00:51.705Z,10.57
2017-09-10T03:03:20.218Z,8.15
2017-09-10T03:05:48.554Z,9.73
2017-09-10T03:08:16.270Z,11.73
2017-09-10T03:10:43.862Z,8.07
2017-09-10T03:13:11.740Z,10.50
2017-09-10T03:15:39.305Z,10.52
2017-09-10T03:18:06.870Z,8.88
2017-09-10T03:20:34.605Z,11.15
2017-09-10T03:23:02.248Z,11.77
2017-09-10T03:25:29.823Z,9.05
2017-09-10T03:27:57.469Z,9.25
2017-09-10T03:30:25.306Z,9.00
2017-09-10T03:32:53.620Z,9.50
2017-09-10T03:35:21.167Z,8.43
2017-09-10T03:37:49.194Z,9.05
2017-09-10T03:40:16.751Z,10.63
2017-09-10T03:42:44.298Z,8.80
2017-09-10T03:45:12.045Z,9.07
2017-09-10T03:47:39.655Z,10.02
2017-09-10T03:50:07.979Z,7.93
2017-09-10T03:52:35.538Z,12.93
2017-09-10T03:55:03.554Z,7.85
2017-09-10T03:57:31.131Z,8.55
2017-09-10T03:59:59.497Z,8.35
2017-09-10T04:02:27.036Z,8.52
2017-09-10T04:04:54.685Z,8.10
2017-09-10T04:07:22.275Z,9.20
2017-09-10T04:09:49.833Z,8.57
2017-09-10T04:12:17.421Z,9.40
2017-09-10T04:14:45.743Z,8.90
2017-09-10T04:17:13.338Z,7.85
2017-09-10T04:19:40.885Z,8.55
2017-09-10T04:22:08.622Z,8.25
2017-09-10T04:24:36.193Z,7.40
2017-09-10T04:27:03.803Z,8.70
2017-09-10T04:29:32.134Z,8.35
2017-09-10T04:31:59.884Z,9.65
2017-09-10T04:34:27.439Z,8.32
2017-09-10T04:36:54.997Z,8.85
2017-09-10T04:39:22.759Z,8.95
2017-09-10T04:41:50.322Z,8.80
2017-09-10T04:44:18.089Z,9.80
2017-09-10T04:46:45.649Z,8.57
2017-09-10T04:49:13.252Z,9.40
2017-09-10T04:51:40.826Z,13.43
2017-09-10T04:54:08.432Z,8.82
2017-09-10T04:56:36.160Z,9.73
2017-09-10T04:59:03.975Z,8.80
2017-09-10T05:01:31.614Z,9.68
2017-09-10T05:03:59.301Z,9.35
2017-09-10T05:06:27.066Z,9.20
2017-09-10T05:08:54.715Z,8.63
2017-09-10T05:11:22.291Z,10.27
2017-09-10T05:13:50.608Z,9.52
2017-09-10T05:16:18.261Z,9.20
2017-09-10T05:18:46.648Z,9.95
2017-09-10T05:21:15.033Z,8.90
2017-09-10T05:23:42.682Z,9.57
2017-09-10T05:26:10.311Z,9.40
2017-09-10T05:28:38.424Z,9.30
2017-09-10T05:31:06.094Z,9.57
2017-09-10T05:33:33.690Z,9.23
2017-09-10T05:36:01.334Z,9.85
2017-09-10T05:38:28.953Z,10.15
2017-09-10T05:40:59.114Z,9.93
2017-09-10T05:43:26.994Z,10.00
2017-09-10T05:45:54.599Z,9.55
2017-09-10T05:48:22.345Z,10.50
2017-09-10T05:50:49.971Z,10.98
2017-09-10T05:53:18.011Z,10.00
2017-09-10T05:55:46.440Z,11.00
2017-09-10T05:58:14.012Z,9.85
2017-09-10T06:00:42.079Z,10.45
2017-09-10T06:03:09.668Z,10.30
2017-09-10T06:05:37.279Z,10.45
2017-09-10T06:08:05.203Z,10.07
2017-09-10T06:10:32.804Z,10.68
2017-09-10T06:13:00.402Z,10.20
2017-09-10T06:15:28.064Z,11.75
2017-09-10T06:17:55.629Z,11.43
2017-09-10T06:20:27.373Z,10.65
2017-09-10T06:22:55.011Z,11.05
2017-09-10T06:25:22.635Z,9.70
2017-09-10T06:27:50.246Z,11.32
2017-09-10T06:30:17.859Z,10.25
2017-09-10T06:32:45.407Z,10.32
2017-09-10T06:35:12.997Z,9.63
2017-09-10T06:37:41.310Z,9.65
2017-09-10T06:40:09.005Z,9.48
2017-09-10T06:42:36.536Z,9.80
2017-09-10T06:45:04.174Z,9.52
2017-09-10T06:47:31.765Z,10.00
2017-09-10T06:49:59.301Z,9.80
2017-09-10T06:52:26.887Z,9.98
2017-09-10T06:54:54.449Z,9.68
2017-09-10T06:57:22.799Z,9.85
2017-09-10T06:59:50.393Z,9.52
2017-09-10T07:02:18.051Z,9.93
2017-09-10T07:04:45.641Z,9.57
2017-09-10T07:07:13.230Z,9.45
2017-09-10T07:09:50.397Z,9.95
2017-09-10T07:12:17.945Z,9.38
2017-09-10T07:23:25.618Z,9.55
2017-09-10T07:25:53.940Z,9.15
2017-09-10T07:28:21.534Z,8.88
2017-09-10T07:30:49.078Z,8.25
2017-09-10T07:33:16.781Z,8.52
2017-09-10T07:35:44.321Z,8.40
2017-09-10T07:38:11.897Z,8.80
2017-09-10T07:40:39.456Z,8.70
2017-09-10T07:43:08.317Z,7.53
2017-09-10T07:45:35.849Z,7.30
2017-09-10T07:48:04.637Z,8.05
2017-09-10T07:50:32.174Z,7.20
2017-09-10T07:53:00.706Z,7.40
2017-09-10T07:55:28.245Z,7.37
2017-09-10T07:57:58.700Z,7.55
2017-09-10T08:00:26.239Z,6.32
2017-09-10T08:02:53.801Z,5.93
2017-09-10T08:05:21.407Z,5.87
2017-09-10T08:07:48.943Z,6.35
2017-09-10T08:10:17.115Z,5.87
2017-09-10T08:12:44.658Z,5.82
2017-09-10T08:15:12.198Z,5.75
2017-09-10T08:17:40.064Z,5.97
2017-09-10T08:20:08.137Z,6.05
2017-09-10T08:22:35.669Z,5.60
2017-09-10T08:25:04.068Z,4.87
2017-09-10T08:27:31.645Z,5.10
2017-09-10T08:29:59.185Z,5.32
2017-09-10T08:32:26.766Z,4.85
2017-09-10T08:34:54.297Z,4.70
2017-09-10T08:37:21.987Z,5.20
2017-09-10T08:39:49.529Z,4.80
2017-09-10T08:42:17.074Z,4.70
2017-09-10T08:44:45.528Z,4.75
2017-09-10T08:47:13.074Z,4.70
2017-09-10T08:49:40.657Z,3.95
2017-09-10T08:52:08.184Z,4.07
2017-09-10T08:54:35.913Z,3.90
2017-09-10T08:57:03.528Z,4.55
2017-09-10T08:59:31.182Z,3.72
2017-09-10T09:01:59.053Z,4.37
2017-09-10T09:04:26.585Z,4.40
2017-09-10T09:06:54.129Z,3.40
2017-09-10T09:09:21.830Z,4.00
2017-09-10T09:11:49.405Z,4.47
2017-09-10T09:14:16.946Z,3.80
2017-09-10T09:16:44.530Z,3.92
2017-09-10T09:19:12.083Z,2.90
2017-09-10T09:21:40.082Z,3.15
2017-09-10T09:24:08.386Z,3.62
2017-09-10T09:26:35.929Z,3.12
2017-09-10T09:29:03.554Z,3.25
2017-09-10T09:31:31.094Z,3.10
2017-09-10T09:33:58.719Z,2.83
2017-09-10T09:36:26.257Z,3.00
2017-09-10T09:38:54.561Z,2.70
2017-09-10T09:41:22.201Z,2.30
2017-09-10T09:43:51.751Z,1.98
2017-09-10T09:46:19.297Z,2.53
2017-09-10T09:48:46.841Z,2.25
2017-09-10T09:51:14.790Z,2.60
2017-09-10T09:53:43.097Z,2.45
2017-09-10T09:56:10.701Z,2.10
2017-09-10T09:58:38.865Z,2.30
2017-09-10T10:01:06.397Z,2.50
2017-09-10T10:03:33.969Z,2.40
2017-09-10T10:06:01.521Z,2.25
2017-09-10T10:08:32.069Z,2.28
2017-09-10T10:10:59.610Z,2.50
2017-09-10T10:13:27.151Z,2.30
2017-09-10T10:15:54.884Z,2.00
2017-09-10T10:18:22.486Z,2.30
2017-09-10T10:20:50.377Z,2.40
2017-09-10T10:23:17.969Z,1.80
2017-09-10T10:25:45.526Z,1.98
2017-09-10T10:28:13.108Z,2.20
2017-09-10T10:30:41.414Z,2.12
2017-09-10T10:33:11.703Z,2.00
2017-09-10T10:35:39.253Z,2.17
2017-09-10T10:38:06.838Z,2.00
2017-09-10T10:40:35.477Z,2.00
2017-09-10T10:43:03.021Z,2.00
2017-09-10T10:45:30.573Z,1.65
2017-09-10T10:47:58.488Z,1.60
2017-09-10T10:50:26.805Z,2.10
2017-09-10T10:52:54.390Z,2.10
2017-09-10T10:55:22.373Z,1.80
2017-09-10T10:57:49.969Z,1.87
2017-09-10T11:00:18.305Z,1.95
2017-09-10T11:02:45.954Z,1.65
2017-09-10T11:05:13.538Z,2.00
2017-09-10T11:07:41.978Z,1.90
2017-09-10T11:10:09.996Z,1.70
2017-09-10T11:12:38.334Z,1.70
2017-09-10T11:15:05.879Z,1.77
2017-09-10T11:17:33.575Z,1.98
2017-09-10T11:20:01.129Z,1.80
2017-09-10T11:22:29.081Z,2.10
2017-09-10T11:24:57.161Z,2.30
2017-09-10T11:27:24.734Z,1.77
2017-09-10T11:29:52.733Z,2.28
2017-09-10T11:32:20.292Z,1.83
2017-09-10T11:34:47.848Z,1.80
2017-09-10T11:37:15.606Z,1.80
2017-09-10T11:39:43.194Z,2.10
2017-09-10T11:42:11.518Z,1.70
2017-09-10T11:44:39.513Z,2.00
2017-09-10T11:47:07.057Z,2.15
2017-09-10T11:49:34.625Z,1.85
2017-09-10T11:52:02.240Z,2.20
2017-09-10T11:54:30.213Z,1.85
2017-09-10T11:56:57.788Z,2.05
2017-09-10T11:59:25.345Z,1.75
2017-09-10T12:01:53.256Z,1.75
2017-09-10T12:04:20.863Z,1.85
2017-09-10T12:06:48.460Z,1.75
2017-09-10T12:09:16.056Z,1.90
2017-09-10T12:11:44.574Z,1.48
2017-09-10T12:14:16.825Z,1.70
2017-09-10T12:16:45.507Z,2.00
2017-09-10T12:19:17.740Z,1.90
2017-09-10T12:21:45.573Z,1.87
2017-09-10T12:24:13.169Z,1.70
2017-09-10T12:26:40.727Z,1.75
2017-09-10T12:29:08.409Z,1.90
2017-09-10T12:31:35.962Z,1.53
2017-09-10T12:34:03.509Z,1.70
2017-09-10T12:36:31.365Z,1.77
2017-09-10T12:38:59.099Z,1.90
2017-09-10T12:41:26.647Z,1.80
2017-09-10T12:43:55.006Z,1.70
2017-09-10T12:46:22.579Z,1.70
2017-09-10T12:48:50.925Z,1.90
2017-09-10T12:51:18.890Z,1.63
2017-09-10T12:53:46.449Z,1.80
2017-09-10T12:56:14.696Z,1.67
2017-09-10T12:58:42.707Z,1.73
2017-09-10T13:01:10.265Z,1.40
2017-09-10T13:03:39.464Z,1.40
2017-09-10T13:06:07.013Z,1.43
2017-09-10T13:08:34.556Z,1.70
2017-09-10T13:11:02.214Z,1.50
2017-09-10T13:13:31.039Z,1.50
2017-09-10T13:15:58.592Z,1.30
2017-09-10T13:18:26.174Z,1.50
2017-09-10T13:20:53.717Z,1.40
2017-09-10T13:23:21.938Z,1.30
2017-09-10T13:25:49.482Z,1.40
2017-09-10T13:28:17.034Z,1.40
2017-09-10T13:30:44.773Z,1.33
2017-09-10T13:33:12.329Z,1.40
2017-09-10T13:35:39.925Z,1.40
2017-09-10T13:38:08.250Z,1.37
2017-09-10T13:40:37.411Z,1.57
2017-09-10T13:43:04.969Z,1.40
2017-09-10T13:45:33.290Z,1.40
2017-09-10T13:48:01.010Z,1.40
2017-09-10T13:50:29.350Z,1.50
2017-09-10T13:52:56.909Z,1.30
2017-09-10T13:55:25.990Z,1.50
2017-09-10T13:57:53.578Z,1.53
2017-09-10T14:00:23.681Z,1.20
2017-09-10T14:02:51.226Z,1.60
2017-09-10T14:05:20.458Z,1.80
2017-09-10T14:07:48.003Z,1.67
2017-09-10T14:10:15.550Z,1.80
2017-09-10T14:12:43.150Z,1.70
2017-09-10T14:15:11.222Z,1.83
2017-09-10T14:17:39.561Z,1.63
2017-09-10T14:20:07.116Z,2.13
2017-09-10T14:22:36.325Z,2.25
2017-09-10T14:25:03.877Z,1.80
2017-09-10T14:27:31.436Z,2.00
2017-09-10T14:29:59.024Z,2.37
2017-09-10T14:32:26.570Z,1.90
2017-09-10T14:34:54.169Z,2.47
2017-09-10T14:37:22.480Z,3.10
2017-09-10T14:39:50.373Z,2.87
2017-09-10T14:42:17.970Z,2.60
2017-09-10T14:44:46.296Z,2.60
2017-09-10T14:47:13.878Z,2.47
2017-09-10T14:49:41.471Z,2.42
2017-09-10T14:52:09.033Z,2.25
2017-09-10T14:54:37.581Z,2.60
2017-09-10T14:57:05.126Z,2.70
2017-09-10T14:59:32.713Z,2.65
2017-09-10T15:02:00.261Z,2.30
2017-09-10T15:04:27.888Z,2.30
2017-09-10T15:06:55.532Z,2.30
2017-09-10T15:09:23.091Z,2.15
2017-09-10T15:11:50.872Z,2.47
2017-09-10T15:14:18.418Z,2.30
2017-09-10T15:16:46.000Z,2.30
2017-09-10T15:19:13.549Z,2.20
2017-09-10T15:21:41.589Z,2.08
2017-09-10T15:24:09.914Z,2.40
2017-09-10T15:26:37.450Z,2.13
2017-09-10T15:29:05.244Z,2.60
2017-09-10T15:31:32.790Z,2.47
2017-09-10T15:34:01.575Z,2.70
2017-09-10T15:36:29.125Z,1.92
2017-09-10T15:38:57.103Z,2.30
2017-09-10T15:41:24.654Z,2.30
2017-09-10T15:43:52.206Z,2.60
2017-09-10T15:46:19.871Z,2.30
2017-09-10T15:48:47.466Z,2.60
2017-09-10T15:51:15.062Z,2.60
2017-09-10T15:53:42.645Z,2.30
2017-09-10T15:56:11.052Z,2.30
2017-09-10T15:58:39.767Z,2.62
2017-09-10T16:01:07.313Z,2.63
2017-09-10T16:03:34.873Z,2.28
2017-09-10T16:06:02.744Z,2.20
2017-09-10T16:08:30.397Z,1.90
2017-09-10T16:10:57.950Z,2.20
2017-09-10T16:13:25.822Z,1.85
2017-09-10T16:15:53.386Z,1.98
2017-09-10T16:18:20.938Z,2.10
2017-09-10T16:20:48.612Z,2.08
2017-09-10T16:23:16.204Z,1.80
2017-09-10T16:25:43.751Z,2.20
2017-09-10T16:28:11.335Z,2.87
2017-09-10T16:30:40.102Z,3.10
2017-09-10T16:33:09.949Z,2.80
2017-09-10T16:35:37.521Z,2.30
2017-09-10T16:38:05.102Z,2.30
2017-09-10T16:40:33.090Z,2.70
2017-09-10T16:43:00.645Z,2.25
2017-09-10T16:45:28.211Z,2.30
2017-09-10T16:47:59.972Z,2.30
2017-09-10T16:50:27.663Z,1.70
2017-09-10T16:52:56.021Z,1.70
2017-09-10T16:55:23.794Z,2.25
2017-09-10T16:57:51.804Z,1.90
2017-09-10T17:00:19.362Z,2.20
2017-09-10T17:02:46.942Z,1.85
2017-09-10T17:05:14.481Z,1.83
2017-09-10T17:07:42.066Z,1.80
2017-09-10T17:10:10.621Z,2.10
2017-09-10T17:12:38.948Z,1.90
2017-09-10T17:15:06.493Z,1.98
2017-09-10T17:17:34.081Z,2.35
2017-09-10T17:20:01.681Z,2.30
2017-09-10T17:22:30.332Z,2.10
2017-09-10T17:25:00.582Z,1.80
2017-09-10T17:27:28.212Z,1.70
2017-09-10T17:29:58.441Z,1.90
2017-09-10T17:32:26.007Z,1.90
2017-09-10T17:34:53.630Z,1.87
2017-09-10T17:37:21.186Z,2.30
2017-09-10T17:39:48.737Z,2.25
2017-09-10T17:42:16.330Z,2.05
2017-09-10T17:44:43.981Z,1.98
2017-09-10T17:47:11.858Z,1.75
2017-09-10T17:49:39.429Z,1.80
2017-09-10T17:52:06.994Z,2.40
2017-09-10T17:54:35.067Z,2.10
2017-09-10T17:57:04.078Z,2.22
2017-09-10T17:59:31.711Z,2.22
2017-09-10T18:01:59.363Z,2.15
2017-09-10T18:04:26.925Z,2.25
2017-09-10T18:06:54.877Z,2.50
2017-09-10T18:09:22.470Z,2.58
2017-09-10T18:11:50.035Z,2.05
2017-09-10T18:14:17.850Z,2.55
2017-09-10T18:16:45.406Z,2.10
2017-09-10T18:19:12.978Z,2.50
2017-09-10T18:21:40.900Z,2.40
2017-09-10T18:24:08.477Z,2.60
2017-09-10T18:26:36.115Z,2.08
2017-09-10T18:29:03.731Z,1.70
2017-09-10T18:31:31.334Z,1.75
2017-09-10T18:33:58.953Z,2.00
2017-09-10T18:36:26.979Z,1.90
2017-09-10T18:38:54.580Z,2.00
2017-09-10T18:41:22.459Z,2.30
2017-09-10T18:43:53.769Z,2.35
2017-09-10T18:46:22.082Z,2.37
2017-09-10T18:48:51.415Z,2.20
2017-09-10T18:51:18.962Z,2.20
2017-09-10T18:53:46.505Z,2.47
2017-09-10T18:56:14.506Z,2.30
2017-09-10T18:58:42.060Z,2.20
2017-09-10T19:01:09.629Z,2.40
2017-09-10T19:03:37.221Z,2.67
2017-09-10T19:06:04.783Z,2.20
2017-09-10T19:08:32.751Z,2.25
2017-09-10T19:11:00.326Z,2.10
2017-09-10T19:13:27.877Z,2.30
2017-09-10T19:15:56.298Z,2.60
2017-09-10T19:18:23.837Z,2.75
2017-09-10T19:20:51.418Z,2.47
2017-09-10T19:23:24.523Z,2.75
2017-09-10T19:25:52.113Z,2.70
2017-09-10T19:28:20.435Z,2.75
2017-09-10T19:30:48.125Z,2.30
2017-09-10T19:33:15.677Z,1.90
2017-09-10T19:35:43.218Z,2.78
2017-09-10T19:38:10.862Z,2.30
2017-09-10T19:40:38.463Z,2.20
2017-09-10T19:43:06.003Z,2.00
2017-09-10T19:45:33.594Z,2.55
2017-09-10T19:48:01.194Z,2.40
2017-09-10T19:50:29.511Z,2.40
2017-09-10T19:53:02.410Z,2.58
2017-09-10T19:55:29.957Z,2.42
2017-09-10T19:57:57.506Z,2.60
2017-09-10T20:00:25.097Z,2.42
2017-09-10T20:02:52.701Z,2.50
2017-09-10T20:05:21.050Z,2.50
2017-09-10T20:07:48.590Z,2.30
2017-09-10T20:10:16.368Z,2.10
2017-09-10T20:12:43.899Z,2.30
2017-09-10T20:15:12.222Z,2.20
2017-09-10T20:17:39.974Z,2.50
2017-09-10T20:20:07.558Z,2.15
2017-09-10T20:22:35.922Z,2.40
2017-09-10T20:25:03.694Z,2.58
2017-09-10T20:27:31.233Z,2.12
2017-09-10T20:29:58.824Z,2.00
2017-09-10T20:32:27.253Z,2.20
2017-09-10T20:34:55.040Z,2.25
2017-09-10T20:37:22.628Z,2.40
2017-09-10T20:39:51.479Z,2.33
2017-09-10T20:42:19.018Z,2.30
2017-09-10T20:44:46.570Z,2.20
2017-09-10T20:47:14.157Z,2.10
2017-09-10T20:49:41.738Z,2.30
2017-09-10T20:52:09.341Z,2.20
2017-09-10T20:54:36.885Z,2.20
2017-09-10T20:57:05.270Z,2.33
2017-09-10T20:59:32.817Z,2.20
2017-09-10T21:02:00.414Z,2.42
2017-09-10T21:04:27.961Z,2.05
2017-09-10T21:06:55.509Z,2.50
2017-09-10T21:09:24.014Z,1.90
2017-09-10T21:11:51.553Z,2.10
2017-09-10T21:14:19.893Z,2.28
2017-09-10T21:16:47.437Z,2.20
2017-09-10T21:19:15.014Z,2.28
2017-09-10T21:21:42.659Z,2.10
2017-09-10T21:24:10.341Z,1.90
2017-09-10T21:26:37.885Z,1.98
2017-09-10T21:29:05.433Z,1.90
2017-09-10T21:31:33.308Z,2.00
2017-09-10T21:34:00.958Z,1.70
2017-09-10T21:36:28.798Z,1.92
2017-09-10T21:38:56.338Z,2.00
2017-09-10T21:41:24.370Z,2.28
2017-09-10T21:43:51.920Z,1.80
2017-09-10T21:46:19.462Z,1.98
2017-09-10T21:48:47.137Z,2.15
2017-09-10T21:51:14.674Z,2.00
2017-09-10T21:53:47.091Z,2.00
2017-09-10T21:56:14.625Z,2.05
2017-09-10T21:58:42.269Z,1.90
2017-09-10T22:01:15.507Z,2.00
2017-09-10T22:03:43.044Z,2.10
2017-09-10T22:06:10.585Z,2.00
2017-09-10T22:08:38.492Z,2.28
2017-09-10T22:11:06.043Z,2.08
2017-09-10T22:13:33.591Z,2.20
2017-09-10T22:16:01.566Z,2.30
2017-09-10T22:18:29.109Z,2.00
2017-09-10T22:20:56.650Z,2.33
2017-09-10T22:23:24.558Z,2.10
2017-09-10T22:25:52.102Z,2.00
2017-09-10T22:28:20.425Z,2.30
2017-09-10T22:30:48.168Z,2.00
2017-09-10T22:33:15.721Z,1.98
2017-09-10T22:35:43.353Z,2.67
2017-09-10T22:38:10.945Z,2.40
2017-09-10T22:40:38.707Z,2.25
2017-09-10T22:43:06.265Z,1.95
2017-09-10T22:45:33.858Z,2.40
2017-09-10T22:48:01.410Z,2.40
2017-09-10T22:50:29.261Z,2.40
2017-09-10T22:52:56.807Z,2.35
2017-09-10T22:55:24.364Z,2.20
2017-09-10T22:57:54.714Z,2.53
2017-09-10T23:00:22.294Z,2.40
2017-09-10T23:02:49.833Z,2.25
2017-09-10T23:05:17.391Z,2.55
2017-09-10T23:07:44.981Z,2.33
2017-09-10T23:10:13.298Z,2.37
2017-09-10T23:12:41.404Z,2.83
2017-09-10T23:15:08.950Z,2.12
2017-09-10T23:17:36.528Z,2.45
2017-09-10T23:20:04.126Z,2.50
2017-09-10T23:22:32.290Z,2.35
2017-09-10T23:25:00.650Z,2.58
2017-09-10T23:27:28.191Z,2.47
2017-09-10T23:29:56.061Z,2.67
2017-09-10T23:32:23.617Z,2.25
2017-09-10T23:34:51.509Z,2.72
2017-09-10T23:37:19.053Z,2.75
2017-09-10T23:39:46.608Z,3.20
2017-09-10T23:42:14.205Z,2.83
2017-09-10T23:44:41.799Z,3.20
2017-09-10T23:47:09.445Z,2.60
2017-09-10T23:49:37.002Z,2.65
2017-09-10T23:52:04.610Z,3.05
2017-09-10T23:54:32.186Z,3.05
2017-09-10T23:56:59.942Z,2.75
2017-09-10T23:59:27.498Z,2.70
